createdAt,value
2019-04-30T00:01:58.896Z,0.19
2019-04-30T00:07:05.685Z,0.14
2019-04-30T00:12:15.557Z,0.18
2019-04-30T00:17:22.661Z,0.21
2019-04-30T00:22:34.325Z,0.13
2019-04-30T00:27:40.677Z,0.26
2019-04-30T00:32:50.000Z,0.18
2019-04-30T00:38:00.250Z,0.10
2019-04-30T00:43:09.083Z,0.19
2019-04-30T00:48:19.380Z,0.12
2019-04-30T00:53:26.269Z,0.17
2019-04-30T00:58:35.638Z,0.42
2019-04-30T01:03:46.427Z,0.16
2019-04-30T01:08:51.873Z,0.16
2019-04-30T01:14:01.158Z,0.35
2019-04-30T01:19:21.281Z,0.30
2019-04-30T01:24:23.414Z,0.13
2019-04-30T01:29:31.096Z,0.14
2019-04-30T01:34:37.030Z,0.21
2019-04-30T01:39:46.437Z,0.12
2019-04-30T01:44:55.741Z,0.24
2019-04-30T01:50:05.081Z,0.21
2019-04-30T01:55:14.420Z,0.16
2019-04-30T02:00:22.229Z,0.19
2019-04-30T02:05:31.505Z,0.12
2019-04-30T02:10:40.697Z,0.16
2019-04-30T02:15:50.122Z,0.10
2019-04-30T02:20:59.635Z,0.20
2019-04-30T02:26:08.713Z,0.22
2019-04-30T02:31:19.451Z,0.13
2019-04-30T02:36:29.823Z,0.25
2019-04-30T02:41:35.750Z,0.19
2019-04-30T02:46:45.045Z,0.23
2019-04-30T02:51:54.267Z,0.23
2019-04-30T02:57:03.632Z,0.22
2019-04-30T03:02:12.815Z,0.18
2019-04-30T03:07:22.081Z,0.11
2019-04-30T03:12:33.751Z,0.15
2019-04-30T03:17:40.054Z,0.52
2019-04-30T03:22:51.226Z,0.19
2019-04-30T03:28:00.336Z,0.11
2019-04-30T03:33:07.063Z,0.25
2019-04-30T03:38:16.283Z,0.21
2019-04-30T03:43:25.469Z,0.37
2019-04-30T03:48:34.691Z,0.34
2019-04-30T03:53:43.962Z,0.25
2019-04-30T03:58:53.182Z,0.18
2019-04-30T04:04:02.372Z,0.26
2019-04-30T04:09:11.868Z,0.23
2019-04-30T04:14:21.072Z,0.29
2019-04-30T04:19:30.333Z,0.33
2019-04-30T04:24:40.187Z,0.22
2019-04-30T04:29:51.097Z,0.22
2019-04-30T04:34:59.923Z,0.24
2019-04-30T04:40:05.881Z,0.27
2019-04-30T04:45:15.157Z,0.22
2019-04-30T04:50:24.721Z,0.34
2019-04-30T04:55:34.061Z,0.41
2019-04-30T05:00:44.863Z,0.24
2019-04-30T05:05:44.062Z,0.17
2019-04-30T05:10:53.564Z,0.17
2019-04-30T05:16:02.827Z,0.24
2019-04-30T05:21:12.246Z,0.27
2019-04-30T05:26:22.843Z,0.21
2019-04-30T05:31:30.450Z,0.23
2019-04-30T05:36:39.795Z,0.13
2019-04-30T05:41:49.377Z,0.28
2019-04-30T05:46:59.216Z,0.25
2019-04-30T05:52:09.438Z,0.19
2019-04-30T05:57:16.348Z,0.26
2019-04-30T06:02:25.866Z,0.23
2019-04-30T06:07:34.686Z,0.25
2019-04-30T06:12:43.948Z,0.24
2019-04-30T06:18:00.291Z,0.25
2019-04-30T06:23:02.046Z,0.17
2019-04-30T06:28:11.305Z,0.13
2019-04-30T06:33:20.757Z,0.16
2019-04-30T06:38:30.115Z,0.25
2019-04-30T06:43:39.480Z,0.26
2019-04-30T06:48:50.823Z,0.17
2019-04-30T06:53:58.680Z,0.21
2019-04-30T06:59:06.617Z,0.17
2019-04-30T07:04:15.829Z,0.20
2019-04-30T07:09:26.836Z,0.18
2019-04-30T07:14:34.310Z,0.17
2019-04-30T07:19:55.604Z,0.25
2019-04-30T07:24:52.525Z,0.14
2019-04-30T07:30:01.839Z,0.26
2019-04-30T07:35:11.145Z,0.24
2019-04-30T07:40:20.605Z,0.25
2019-04-30T07:45:31.946Z,0.27
2019-04-30T07:50:41.034Z,0.15
2019-04-30T07:55:49.408Z,0.16
2019-04-30T08:00:56.604Z,0.17
2019-04-30T08:06:06.183Z,0.21
2019-04-30T08:11:23.927Z,0.24
2019-04-30T08:16:24.475Z,0.21
2019-04-30T08:21:33.862Z,0.19
2019-04-30T08:26:43.431Z,0.20
2019-04-30T08:31:52.713Z,0.13
2019-04-30T08:37:12.942Z,0.11
2019-04-30T08:42:11.115Z,0.21
2019-04-30T08:47:21.282Z,0.14
2019-04-30T08:52:30.478Z,0.13
2019-04-30T08:57:39.545Z,0.09
2019-04-30T09:02:49.053Z,0.22
2019-04-30T09:07:56.258Z,0.15
2019-04-30T09:13:05.638Z,0.22
2019-04-30T09:18:14.958Z,0.12
2019-04-30T09:23:24.192Z,0.22
2019-04-30T09:28:33.756Z,0.17
2019-04-30T09:33:43.011Z,0.23
2019-04-30T09:38:52.491Z,0.21
2019-04-30T09:44:01.875Z,0.12
2019-04-30T09:49:11.347Z,0.19
2019-04-30T09:54:21.004Z,0.09
2019-04-30T09:59:29.599Z,0.15
2019-04-30T10:04:39.764Z,0.08
2019-04-30T10:09:50.656Z,0.12
2019-04-30T10:14:56.615Z,0.10
2019-04-30T10:20:06.056Z,0.09
2019-04-30T10:25:15.319Z,0.09
2019-04-30T10:30:24.677Z,0.14
2019-04-30T10:35:34.138Z,0.09
2019-04-30T10:40:43.501Z,0.09
2019-04-30T10:45:52.847Z,0.08
2019-04-30T10:51:02.133Z,0.09
2019-04-30T10:56:11.675Z,0.15
2019-04-30T11:01:20.994Z,0.11
2019-04-30T11:06:30.451Z,0.11
2019-04-30T11:11:39.882Z,0.10
2019-04-30T11:16:51.481Z,0.15
2019-04-30T11:21:58.570Z,0.07
2019-04-30T11:27:10.163Z,0.12
2019-04-30T11:32:17.027Z,0.11
2019-04-30T11:37:25.781Z,0.12
2019-04-30T11:42:35.149Z,0.14
2019-04-30T11:47:53.356Z,0.05
2019-04-30T11:52:53.438Z,0.18
2019-04-30T11:58:02.722Z,0.10
2019-04-30T12:03:12.173Z,0.09
2019-04-30T12:08:21.372Z,0.09
2019-04-30T12:13:30.756Z,0.06
2019-04-30T12:18:40.094Z,0.07
2019-04-30T12:23:49.557Z,0.05
2019-04-30T12:28:58.788Z,0.08
2019-04-30T12:34:08.053Z,0.01
2019-04-30T12:39:17.334Z,0.13
2019-04-30T12:44:26.559Z,0.16
2019-04-30T12:49:36.101Z,0.07
2019-04-30T12:54:45.405Z,0.04
2019-04-30T12:59:54.842Z,0.25
2019-04-30T13:05:04.113Z,0.15
2019-04-30T13:10:13.892Z,0.08
2019-04-30T13:15:22.300Z,0.08
2019-04-30T13:20:31.733Z,0.15
2019-04-30T13:25:50.791Z,0.07
2019-04-30T13:30:50.171Z,0.10
2019-04-30T13:35:59.385Z,0.02
2019-04-30T13:41:08.942Z,0.10
2019-04-30T13:46:18.540Z,0.08
2019-04-30T13:51:27.084Z,0.06
2019-04-30T13:56:36.380Z,0.11
2019-04-30T14:01:45.810Z,0.04
2019-04-30T14:06:55.117Z,0.04
2019-04-30T14:12:04.582Z,0.05
2019-04-30T14:17:13.843Z,0.00
2019-04-30T14:22:23.216Z,0.00
2019-04-30T14:27:32.606Z,0.03
2019-04-30T14:32:42.314Z,0.06
2019-04-30T14:37:51.642Z,0.00
2019-04-30T14:43:01.342Z,0.05
2019-04-30T14:48:10.388Z,0.02
2019-04-30T14:53:18.866Z,0.09
2019-04-30T14:58:29.319Z,0.07
2019-04-30T15:03:37.064Z,0.00
2019-04-30T15:08:46.567Z,0.02
2019-04-30T15:13:55.905Z,0.00
2019-04-30T15:19:05.236Z,0.04
2019-04-30T15:24:14.697Z,0.05
2019-04-30T15:29:23.997Z,0.00
2019-04-30T15:34:33.502Z,0.03
2019-04-30T15:39:41.609Z,0.00
2019-04-30T15:44:51.335Z,0.00
2019-04-30T15:50:02.248Z,0.07
2019-04-30T15:55:12.310Z,0.05
2019-04-30T16:00:10.679Z,0.01
2019-04-30T16:05:20.740Z,0.03
2019-04-30T16:10:20.453Z,0.00
2019-04-30T16:15:29.891Z,0.02
2019-04-30T16:20:39.400Z,0.00
2019-04-30T16:25:48.750Z,0.01
2019-04-30T16:30:58.107Z,0.02
2019-04-30T16:36:09.041Z,0.00
2019-04-30T16:41:28.833Z,0.08
2019-04-30T16:46:25.438Z,0.07
2019-04-30T16:51:34.657Z,0.00
2019-04-30T16:56:44.639Z,0.04
2019-04-30T17:01:57.727Z,0.07
2019-04-30T17:07:02.981Z,0.00
2019-04-30T17:12:12.418Z,0.07
2019-04-30T17:17:21.692Z,0.04
2019-04-30T17:22:31.322Z,0.03
2019-04-30T17:27:52.774Z,0.12
2019-04-30T17:32:40.547Z,0.04
2019-04-30T17:37:49.964Z,0.02
2019-04-30T17:42:59.426Z,0.02
2019-04-30T17:48:08.887Z,0.09
2019-04-30T17:53:19.078Z,0.11
2019-04-30T17:58:27.084Z,0.07
2019-04-30T18:03:36.390Z,0.16
2019-04-30T18:08:45.857Z,0.07
2019-04-30T18:13:55.213Z,0.10
2019-04-30T18:19:05.276Z,0.06
2019-04-30T18:24:04.534Z,0.04
2019-04-30T18:29:13.859Z,0.03
2019-04-30T18:34:23.283Z,0.10
2019-04-30T18:39:32.809Z,0.05
2019-04-30T18:44:42.500Z,0.09
2019-04-30T18:49:51.680Z,0.07
2019-04-30T18:55:00.965Z,0.08
2019-04-30T19:00:10.209Z,0.11
2019-04-30T19:05:19.459Z,0.10
2019-04-30T19:10:29.331Z,0.09
2019-04-30T19:16:11.446Z,0.17
2019-04-30T19:20:49.551Z,0.23
2019-04-30T19:25:56.492Z,0.37
2019-04-30T19:31:05.742Z,0.31
2019-04-30T19:36:18.480Z,0.41
2019-04-30T19:41:24.612Z,0.31
2019-04-30T19:46:34.304Z,0.22
2019-04-30T19:51:43.778Z,0.22
2019-04-30T19:56:53.192Z,0.28
2019-04-30T20:02:02.584Z,0.21
2019-04-30T20:07:12.057Z,0.20
2019-04-30T20:12:21.319Z,0.10
2019-04-30T20:17:30.617Z,0.28
2019-04-30T20:22:40.902Z,0.14
2019-04-30T20:27:40.724Z,0.08
2019-04-30T20:32:51.527Z,0.18
2019-04-30T20:37:50.836Z,0.23
2019-04-30T20:43:00.297Z,0.23
2019-04-30T20:48:09.527Z,0.22
2019-04-30T20:53:19.758Z,0.21
2019-04-30T20:58:27.734Z,0.26
2019-04-30T21:03:36.999Z,0.15
2019-04-30T21:08:46.237Z,0.10
2019-04-30T21:13:55.781Z,0.20
2019-04-30T21:19:04.996Z,0.10
2019-04-30T21:24:14.417Z,0.22
2019-04-30T21:29:23.592Z,0.19
2019-04-30T21:34:32.997Z,0.25
2019-04-30T21:39:42.353Z,0.14
2019-04-30T21:44:51.751Z,0.14
2019-04-30T21:50:01.055Z,0.15
2019-04-30T21:55:10.262Z,0.16
2019-04-30T22:00:19.701Z,0.08
2019-04-30T22:05:29.029Z,0.13
2019-04-30T22:10:38.425Z,0.10
2019-04-30T22:15:47.616Z,0.20
2019-04-30T22:20:56.821Z,0.16
2019-04-30T22:26:06.020Z,0.10
2019-04-30T22:31:15.265Z,0.13
2019-04-30T22:36:24.680Z,0.09
2019-04-30T22:41:33.982Z,0.14
2019-04-30T22:46:43.361Z,0.17
2019-04-30T22:51:52.589Z,0.26
2019-04-30T22:57:02.057Z,0.12
2019-04-30T23:02:11.277Z,0.14
2019-04-30T23:07:20.771Z,0.33
2019-04-30T23:12:29.965Z,0.18
2019-04-30T23:17:39.359Z,0.14
2019-04-30T23:22:48.544Z,0.36
2019-04-30T23:27:57.777Z,0.34
2019-04-30T23:33:07.006Z,0.28
2019-04-30T23:38:16.209Z,0.36
2019-04-30T23:43:25.397Z,0.33
2019-04-30T23:48:34.613Z,0.19
2019-04-30T23:53:43.788Z,0.26
2019-04-30T23:58:53.177Z,0.32
